sensor_id;sensor_type;location;lat;lon;timestamp;P1;durP1;ratioP1;P2;durP2;ratioP2
60478;SDS011;46321;48.398;11.754;2023-08-20T00:00:58;10.95;;;6.60;;
60478;SDS011;46321;48.398;11.754;2023-08-20T00:03:24;12.95;;;7.25;;
60478;SDS011;46321;48.398;11.754;2023-08-20T00:05:49;14.65;;;7.07;;
60478;SDS011;46321;48.398;11.754;2023-08-20T00:08:15;12.40;;;6.78;;
60478;SDS011;46321;48.398;11.754;2023-08-20T00:10:41;12.85;;;6.35;;
60478;SDS011;46321;48.398;11.754;2023-08-20T00:13:06;14.32;;;6.72;;
60478;SDS011;46321;48.398;11.754;2023-08-20T00:15:31;8.50;;;5.70;;
60478;SDS011;46321;48.398;11.754;2023-08-20T00:17:57;11.07;;;6.47;;
60478;SDS011;46321;48.398;11.754;2023-08-20T00:20:22;8.77;;;6.10;;
60478;SDS011;46321;48.398;11.754;2023-08-20T00:22:48;13.48;;;6.35;;
60478;SDS011;46321;48.398;11.754;2023-08-20T00:25:14;9.93;;;5.93;;
60478;SDS011;46321;48.398;11.754;2023-08-20T00:27:41;13.55;;;6.78;;
60478;SDS011;46321;48.398;11.754;2023-08-20T00:30:07;13.27;;;6.95;;
60478;SDS011;46321;48.398;11.754;2023-08-20T00:32:33;10.90;;;6.05;;
60478;SDS011;46321;48.398;11.754;2023-08-20T00:34:58;9.73;;;6.38;;
60478;SDS011;46321;48.398;11.754;2023-08-20T00:37:24;12.10;;;6.70;;
60478;SDS011;46321;48.398;11.754;2023-08-20T00:39:50;17.25;;;6.93;;
60478;SDS011;46321;48.398;11.754;2023-08-20T00:42:15;14.90;;;6.93;;
60478;SDS011;46321;48.398;11.754;2023-08-20T00:44:41;12.93;;;6.20;;
60478;SDS011;46321;48.398;11.754;2023-08-20T00:47:09;10.00;;;7.03;;
60478;SDS011;46321;48.398;11.754;2023-08-20T00:49:34;9.93;;;6.40;;
60478;SDS011;46321;48.398;11.754;2023-08-20T00:52:00;11.02;;;6.72;;
60478;SDS011;46321;48.398;11.754;2023-08-20T00:54:26;12.82;;;6.40;;
60478;SDS011;46321;48.398;11.754;2023-08-20T00:56:52;10.75;;;6.07;;
60478;SDS011;46321;48.398;11.754;2023-08-20T00:59:18;15.43;;;6.78;;
60478;SDS011;46321;48.398;11.754;2023-08-20T01:01:45;14.73;;;6.63;;
60478;SDS011;46321;48.398;11.754;2023-08-20T01:04:11;9.07;;;6.20;;
60478;SDS011;46321;48.398;11.754;2023-08-20T01:06:43;10.82;;;6.60;;
60478;SDS011;46321;48.398;11.754;2023-08-20T01:09:30;12.27;;;6.65;;
60478;SDS011;46321;48.398;11.754;2023-08-20T01:12:13;11.05;;;6.32;;
60478;SDS011;46321;48.398;11.754;2023-08-20T01:14:39;13.65;;;6.53;;
60478;SDS011;46321;48.398;11.754;2023-08-20T01:17:05;15.05;;;7.00;;
60478;SDS011;46321;48.398;11.754;2023-08-20T01:19:30;12.18;;;6.47;;
60478;SDS011;46321;48.398;11.754;2023-08-20T01:22:14;9.82;;;6.25;;
60478;SDS011;46321;48.398;11.754;2023-08-20T01:27:52;12.70;;;6.18;;
60478;SDS011;46321;48.398;11.754;2023-08-20T01:30:28;10.80;;;6.15;;
60478;SDS011;46321;48.398;11.754;2023-08-20T01:32:55;15.45;;;5.90;;
60478;SDS011;46321;48.398;11.754;2023-08-20T01:35:22;11.80;;;6.13;;
60478;SDS011;46321;48.398;11.754;2023-08-20T01:37:49;12.30;;;6.22;;
60478;SDS011;46321;48.398;11.754;2023-08-20T01:40:14;10.35;;;5.85;;
60478;SDS011;46321;48.398;11.754;2023-08-20T01:42:40;14.55;;;6.45;;
60478;SDS011;46321;48.398;11.754;2023-08-20T01:45:22;11.18;;;6.20;;
60478;SDS011;46321;48.398;11.754;2023-08-20T01:47:47;9.32;;;5.82;;
60478;SDS011;46321;48.398;11.754;2023-08-20T01:50:13;9.93;;;6.13;;
60478;SDS011;46321;48.398;11.754;2023-08-20T01:52:38;9.65;;;6.53;;
60478;SDS011;46321;48.398;11.754;2023-08-20T01:55:03;12.68;;;6.43;;
60478;SDS011;46321;48.398;11.754;2023-08-20T01:57:30;11.77;;;6.32;;
60478;SDS011;46321;48.398;11.754;2023-08-20T01:59:56;9.30;;;6.07;;
60478;SDS011;46321;48.398;11.754;2023-08-20T02:02:22;14.73;;;5.70;;
60478;SDS011;46321;48.398;11.754;2023-08-20T02:04:48;7.45;;;5.60;;
60478;SDS011;46321;48.398;11.754;2023-08-20T02:07:13;9.55;;;6.05;;
60478;SDS011;46321;48.398;11.754;2023-08-20T02:09:39;10.27;;;6.13;;
60478;SDS011;46321;48.398;11.754;2023-08-20T02:12:04;12.97;;;6.20;;
60478;SDS011;46321;48.398;11.754;2023-08-20T02:14:29;8.65;;;6.00;;
60478;SDS011;46321;48.398;11.754;2023-08-20T02:16:58;9.75;;;6.50;;
60478;SDS011;46321;48.398;11.754;2023-08-20T02:19:23;9.70;;;6.60;;
60478;SDS011;46321;48.398;11.754;2023-08-20T02:21:49;10.98;;;6.47;;
60478;SDS011;46321;48.398;11.754;2023-08-20T02:24:14;15.67;;;6.90;;
60478;SDS011;46321;48.398;11.754;2023-08-20T02:26:39;10.10;;;6.38;;
60478;SDS011;46321;48.398;11.754;2023-08-20T02:29:05;10.10;;;6.83;;
60478;SDS011;46321;48.398;11.754;2023-08-20T02:31:30;10.85;;;6.35;;
60478;SDS011;46321;48.398;11.754;2023-08-20T02:33:55;8.75;;;5.93;;
60478;SDS011;46321;48.398;11.754;2023-08-20T02:36:21;8.10;;;5.73;;
60478;SDS011;46321;48.398;11.754;2023-08-20T02:38:46;10.13;;;5.93;;
60478;SDS011;46321;48.398;11.754;2023-08-20T02:41:11;10.52;;;6.70;;
60478;SDS011;46321;48.398;11.754;2023-08-20T02:43:37;10.13;;;5.85;;
60478;SDS011;46321;48.398;11.754;2023-08-20T02:46:02;9.70;;;6.28;;
60478;SDS011;46321;48.398;11.754;2023-08-20T02:48:28;17.52;;;6.57;;
60478;SDS011;46321;48.398;11.754;2023-08-20T02:50:54;11.30;;;6.25;;
60478;SDS011;46321;48.398;11.754;2023-08-20T02:53:19;13.38;;;6.00;;
60478;SDS011;46321;48.398;11.754;2023-08-20T02:55:45;18.48;;;6.55;;
60478;SDS011;46321;48.398;11.754;2023-08-20T02:58:10;9.95;;;6.55;;
60478;SDS011;46321;48.398;11.754;2023-08-20T03:00:35;8.50;;;6.10;;
60478;SDS011;46321;48.398;11.754;2023-08-20T03:03:01;14.27;;;6.28;;
60478;SDS011;46321;48.398;11.754;2023-08-20T03:05:31;12.50;;;7.15;;
60478;SDS011;46321;48.398;11.754;2023-08-20T03:07:56;9.55;;;6.35;;
60478;SDS011;46321;48.398;11.754;2023-08-20T03:10:22;12.60;;;6.73;;
60478;SDS011;46321;48.398;11.754;2023-08-20T03:12:47;11.53;;;7.07;;
60478;SDS011;46321;48.398;11.754;2023-08-20T03:15:12;15.20;;;7.27;;
60478;SDS011;46321;48.398;11.754;2023-08-20T03:17:37;10.97;;;7.20;;
60478;SDS011;46321;48.398;11.754;2023-08-20T03:20:03;10.97;;;7.67;;
60478;SDS011;46321;48.398;11.754;2023-08-20T03:22:31;12.65;;;7.40;;
60478;SDS011;46321;48.398;11.754;2023-08-20T03:24:56;10.27;;;6.83;;
60478;SDS011;46321;48.398;11.754;2023-08-20T03:27:21;9.98;;;6.90;;
60478;SDS011;46321;48.398;11.754;2023-08-20T03:29:46;10.90;;;7.00;;
60478;SDS011;46321;48.398;11.754;2023-08-20T03:32:12;12.50;;;7.43;;
60478;SDS011;46321;48.398;11.754;2023-08-20T03:34:37;11.48;;;7.60;;
60478;SDS011;46321;48.398;11.754;2023-08-20T03:37:02;12.00;;;6.93;;
60478;SDS011;46321;48.398;11.754;2023-08-20T03:39:28;12.43;;;8.20;;
60478;SDS011;46321;48.398;11.754;2023-08-20T03:41:54;12.25;;;7.60;;
60478;SDS011;46321;48.398;11.754;2023-08-20T03:44:19;12.50;;;7.50;;
60478;SDS011;46321;48.398;11.754;2023-08-20T03:46:44;12.10;;;6.97;;
60478;SDS011;46321;48.398;11.754;2023-08-20T03:49:10;9.52;;;7.00;;
60478;SDS011;46321;48.398;11.754;2023-08-20T03:51:35;12.52;;;6.82;;
60478;SDS011;46321;48.398;11.754;2023-08-20T03:54:01;13.88;;;7.45;;
60478;SDS011;46321;48.398;11.754;2023-08-20T03:56:27;12.65;;;7.35;;
60478;SDS011;46321;48.398;11.754;2023-08-20T03:58:52;15.15;;;7.20;;
60478;SDS011;46321;48.398;11.754;2023-08-20T04:01:20;9.60;;;7.13;;
60478;SDS011;46321;48.398;11.754;2023-08-20T04:03:46;16.13;;;6.88;;
60478;SDS011;46321;48.398;11.754;2023-08-20T04:06:12;13.18;;;6.82;;
60478;SDS011;46321;48.398;11.754;2023-08-20T04:08:37;14.13;;;7.07;;
60478;SDS011;46321;48.398;11.754;2023-08-20T04:11:02;13.63;;;6.83;;
60478;SDS011;46321;48.398;11.754;2023-08-20T04:13:28;11.10;;;7.15;;
60478;SDS011;46321;48.398;11.754;2023-08-20T04:15:54;13.48;;;6.78;;
60478;SDS011;46321;48.398;11.754;2023-08-20T04:18:19;13.38;;;7.28;;
60478;SDS011;46321;48.398;11.754;2023-08-20T04:20:44;8.43;;;6.53;;
60478;SDS011;46321;48.398;11.754;2023-08-20T04:23:10;12.17;;;6.77;;
60478;SDS011;46321;48.398;11.754;2023-08-20T04:25:35;10.67;;;6.53;;
60478;SDS011;46321;48.398;11.754;2023-08-20T04:28:00;9.32;;;6.70;;
60478;SDS011;46321;48.398;11.754;2023-08-20T04:30:26;10.57;;;6.93;;
60478;SDS011;46321;48.398;11.754;2023-08-20T04:32:51;12.45;;;6.95;;
60478;SDS011;46321;48.398;11.754;2023-08-20T04:35:16;9.03;;;6.80;;
60478;SDS011;46321;48.398;11.754;2023-08-20T04:37:41;14.73;;;6.93;;
60478;SDS011;46321;48.398;11.754;2023-08-20T04:40:07;9.70;;;6.37;;
60478;SDS011;46321;48.398;11.754;2023-08-20T04:42:33;9.50;;;6.53;;
60478;SDS011;46321;48.398;11.754;2023-08-20T04:44:58;13.80;;;7.03;;
60478;SDS011;46321;48.398;11.754;2023-08-20T04:47:23;12.38;;;6.30;;
60478;SDS011;46321;48.398;11.754;2023-08-20T04:49:49;12.90;;;6.90;;
60478;SDS011;46321;48.398;11.754;2023-08-20T04:52:14;13.90;;;6.72;;
60478;SDS011;46321;48.398;11.754;2023-08-20T04:54:39;9.17;;;5.60;;
60478;SDS011;46321;48.398;11.754;2023-08-20T04:57:04;11.27;;;6.35;;
60478;SDS011;46321;48.398;11.754;2023-08-20T04:59:30;8.83;;;6.97;;
60478;SDS011;46321;48.398;11.754;2023-08-20T05:01:55;13.17;;;7.03;;
60478;SDS011;46321;48.398;11.754;2023-08-20T05:04:20;9.75;;;6.60;;
60478;SDS011;46321;48.398;11.754;2023-08-20T05:06:45;9.73;;;7.10;;
60478;SDS011;46321;48.398;11.754;2023-08-20T05:09:12;9.88;;;6.57;;
60478;SDS011;46321;48.398;11.754;2023-08-20T05:11:37;11.50;;;6.40;;
60478;SDS011;46321;48.398;11.754;2023-08-20T05:14:02;11.73;;;6.25;;
60478;SDS011;46321;48.398;11.754;2023-08-20T05:16:28;13.00;;;6.60;;
60478;SDS011;46321;48.398;11.754;2023-08-20T05:18:53;15.03;;;6.60;;
60478;SDS011;46321;48.398;11.754;2023-08-20T05:21:18;9.70;;;5.93;;
60478;SDS011;46321;48.398;11.754;2023-08-20T05:23:44;11.13;;;6.80;;
60478;SDS011;46321;48.398;11.754;2023-08-20T05:26:09;13.65;;;6.47;;
60478;SDS011;46321;48.398;11.754;2023-08-20T05:28:35;11.25;;;7.07;;
60478;SDS011;46321;48.398;11.754;2023-08-20T05:31:00;9.80;;;6.37;;
60478;SDS011;46321;48.398;11.754;2023-08-20T05:33:25;12.27;;;7.00;;
60478;SDS011;46321;48.398;11.754;2023-08-20T05:35:51;10.68;;;6.38;;
60478;SDS011;46321;48.398;11.754;2023-08-20T05:38:16;13.05;;;7.43;;
60478;SDS011;46321;48.398;11.754;2023-08-20T05:40:42;11.40;;;7.72;;
60478;SDS011;46321;48.398;11.754;2023-08-20T05:43:07;14.50;;;8.13;;
60478;SDS011;46321;48.398;11.754;2023-08-20T05:45:33;11.52;;;8.50;;
60478;SDS011;46321;48.398;11.754;2023-08-20T05:47:58;11.40;;;8.40;;
60478;SDS011;46321;48.398;11.754;2023-08-20T05:50:23;12.33;;;8.17;;
60478;SDS011;46321;48.398;11.754;2023-08-20T05:52:49;13.00;;;8.05;;
60478;SDS011;46321;48.398;11.754;2023-08-20T05:55:14;15.43;;;7.03;;
60478;SDS011;46321;48.398;11.754;2023-08-20T05:57:40;10.30;;;7.03;;
60478;SDS011;46321;48.398;11.754;2023-08-20T06:00:07;11.05;;;7.05;;
60478;SDS011;46321;48.398;11.754;2023-08-20T06:02:34;13.50;;;7.68;;
60478;SDS011;46321;48.398;11.754;2023-08-20T06:04:59;13.27;;;7.10;;
60478;SDS011;46321;48.398;11.754;2023-08-20T06:07:25;10.55;;;7.72;;
60478;SDS011;46321;48.398;11.754;2023-08-20T06:09:50;12.05;;;7.53;;
60478;SDS011;46321;48.398;11.754;2023-08-20T06:12:16;13.30;;;7.97;;
60478;SDS011;46321;48.398;11.754;2023-08-20T06:14:42;14.23;;;7.88;;
60478;SDS011;46321;48.398;11.754;2023-08-20T06:17:07;12.20;;;8.03;;
60478;SDS011;46321;48.398;11.754;2023-08-20T06:19:33;11.90;;;7.87;;
60478;SDS011;46321;48.398;11.754;2023-08-20T06:21:59;13.32;;;8.02;;
60478;SDS011;46321;48.398;11.754;2023-08-20T06:24:24;12.57;;;8.00;;
60478;SDS011;46321;48.398;11.754;2023-08-20T06:26:49;11.50;;;7.67;;
60478;SDS011;46321;48.398;11.754;2023-08-20T06:29:14;18.80;;;8.53;;
60478;SDS011;46321;48.398;11.754;2023-08-20T06:31:40;16.40;;;7.73;;
60478;SDS011;46321;48.398;11.754;2023-08-20T06:34:05;12.73;;;7.85;;
60478;SDS011;46321;48.398;11.754;2023-08-20T06:36:31;13.37;;;7.57;;
60478;SDS011;46321;48.398;11.754;2023-08-20T06:38:56;12.07;;;7.80;;
60478;SDS011;46321;48.398;11.754;2023-08-20T06:41:22;11.30;;;8.17;;
60478;SDS011;46321;48.398;11.754;2023-08-20T06:43:48;11.20;;;6.75;;
60478;SDS011;46321;48.398;11.754;2023-08-20T06:46:13;10.40;;;6.63;;
60478;SDS011;46321;48.398;11.754;2023-08-20T06:48:38;9.35;;;6.63;;
60478;SDS011;46321;48.398;11.754;2023-08-20T06:51:22;10.52;;;7.68;;
60478;SDS011;46321;48.398;11.754;2023-08-20T06:53:48;11.77;;;7.15;;
60478;SDS011;46321;48.398;11.754;2023-08-20T06:56:14;12.38;;;6.60;;
60478;SDS011;46321;48.398;11.754;2023-08-20T06:58:40;9.00;;;6.40;;
60478;SDS011;46321;48.398;11.754;2023-08-20T07:01:06;9.98;;;5.93;;
60478;SDS011;46321;48.398;11.754;2023-08-20T07:03:42;9.98;;;6.03;;
60478;SDS011;46321;48.398;11.754;2023-08-20T07:06:08;7.78;;;5.15;;
60478;SDS011;46321;48.398;11.754;2023-08-20T07:08:34;8.98;;;5.03;;
60478;SDS011;46321;48.398;11.754;2023-08-20T07:11:00;9.18;;;5.38;;
60478;SDS011;46321;48.398;11.754;2023-08-20T07:13:26;7.88;;;5.65;;
60478;SDS011;46321;48.398;11.754;2023-08-20T07:15:51;11.98;;;5.43;;
60478;SDS011;46321;48.398;11.754;2023-08-20T07:18:17;11.05;;;5.93;;
60478;SDS011;46321;48.398;11.754;2023-08-20T07:20:42;6.45;;;4.72;;
60478;SDS011;46321;48.398;11.754;2023-08-20T07:23:08;7.63;;;4.32;;
60478;SDS011;46321;48.398;11.754;2023-08-20T07:25:37;8.68;;;5.20;;
60478;SDS011;46321;48.398;11.754;2023-08-20T07:28:07;7.88;;;4.72;;
60478;SDS011;46321;48.398;11.754;2023-08-20T07:30:33;9.38;;;5.40;;
60478;SDS011;46321;48.398;11.754;2023-08-20T07:32:59;7.38;;;5.13;;
60478;SDS011;46321;48.398;11.754;2023-08-20T07:35:25;9.10;;;4.82;;
60478;SDS011;46321;48.398;11.754;2023-08-20T07:37:50;7.10;;;4.43;;
60478;SDS011;46321;48.398;11.754;2023-08-20T07:40:15;9.18;;;5.13;;
60478;SDS011;46321;48.398;11.754;2023-08-20T07:42:41;10.35;;;4.80;;
60478;SDS011;46321;48.398;11.754;2023-08-20T07:45:07;5.47;;;4.40;;
60478;SDS011;46321;48.398;11.754;2023-08-20T07:47:33;7.05;;;4.50;;
60478;SDS011;46321;48.398;11.754;2023-08-20T07:50:01;6.10;;;4.40;;
60478;SDS011;46321;48.398;11.754;2023-08-20T07:52:27;7.65;;;4.25;;
60478;SDS011;46321;48.398;11.754;2023-08-20T07:54:52;6.03;;;4.10;;
60478;SDS011;46321;48.398;11.754;2023-08-20T07:57:17;5.03;;;4.03;;
60478;SDS011;46321;48.398;11.754;2023-08-20T07:59:43;8.10;;;4.00;;
60478;SDS011;46321;48.398;11.754;2023-08-20T08:02:08;7.50;;;4.83;;
60478;SDS011;46321;48.398;11.754;2023-08-20T08:04:33;6.33;;;4.07;;
60478;SDS011;46321;48.398;11.754;2023-08-20T08:06:59;6.05;;;3.85;;
60478;SDS011;46321;48.398;11.754;2023-08-20T08:09:28;5.93;;;3.92;;
60478;SDS011;46321;48.398;11.754;2023-08-20T08:11:57;7.28;;;4.05;;
60478;SDS011;46321;48.398;11.754;2023-08-20T08:14:23;7.95;;;4.25;;
60478;SDS011;46321;48.398;11.754;2023-08-20T08:16:49;6.72;;;3.83;;
60478;SDS011;46321;48.398;11.754;2023-08-20T08:19:15;6.20;;;4.05;;
60478;SDS011;46321;48.398;11.754;2023-08-20T08:21:41;7.13;;;3.88;;
60478;SDS011;46321;48.398;11.754;2023-08-20T08:24:08;8.13;;;4.13;;
60478;SDS011;46321;48.398;11.754;2023-08-20T08:26:34;7.95;;;3.90;;
60478;SDS011;46321;48.398;11.754;2023-08-20T08:29:00;9.68;;;5.00;;
60478;SDS011;46321;48.398;11.754;2023-08-20T08:31:25;6.10;;;3.73;;
60478;SDS011;46321;48.398;11.754;2023-08-20T08:33:50;4.40;;;3.77;;
60478;SDS011;46321;48.398;11.754;2023-08-20T08:36:16;8.33;;;3.87;;
60478;SDS011;46321;48.398;11.754;2023-08-20T08:38:42;4.38;;;3.60;;
60478;SDS011;46321;48.398;11.754;2023-08-20T08:41:10;9.02;;;3.53;;
60478;SDS011;46321;48.398;11.754;2023-08-20T08:43:37;6.85;;;3.35;;
60478;SDS011;46321;48.398;11.754;2023-08-20T08:46:05;7.05;;;3.70;;
60478;SDS011;46321;48.398;11.754;2023-08-20T08:48:32;5.88;;;3.40;;
60478;SDS011;46321;48.398;11.754;2023-08-20T08:51:00;5.47;;;3.47;;
60478;SDS011;46321;48.398;11.754;2023-08-20T08:53:26;4.43;;;3.30;;
60478;SDS011;46321;48.398;11.754;2023-08-20T08:55:51;6.50;;;3.90;;
60478;SDS011;46321;48.398;11.754;2023-08-20T08:58:16;6.67;;;3.50;;
60478;SDS011;46321;48.398;11.754;2023-08-20T09:00:42;5.50;;;3.80;;
60478;SDS011;46321;48.398;11.754;2023-08-20T09:03:07;5.43;;;3.30;;
60478;SDS011;46321;48.398;11.754;2023-08-20T09:05:32;8.50;;;3.70;;
60478;SDS011;46321;48.398;11.754;2023-08-20T09:07:57;4.67;;;3.60;;
60478;SDS011;46321;48.398;11.754;2023-08-20T09:10:25;7.13;;;3.27;;
60478;SDS011;46321;48.398;11.754;2023-08-20T09:12:52;4.30;;;3.67;;
60478;SDS011;46321;48.398;11.754;2023-08-20T09:15:19;5.07;;;3.67;;
60478;SDS011;46321;48.398;11.754;2023-08-20T09:17:46;4.90;;;2.70;;
60478;SDS011;46321;48.398;11.754;2023-08-20T09:20:11;6.38;;;3.33;;
60478;SDS011;46321;48.398;11.754;2023-08-20T09:22:37;4.35;;;3.10;;
60478;SDS011;46321;48.398;11.754;2023-08-20T09:25:05;8.38;;;3.58;;
60478;SDS011;46321;48.398;11.754;2023-08-20T09:27:30;4.03;;;2.95;;
60478;SDS011;46321;48.398;11.754;2023-08-20T09:30:06;5.10;;;3.00;;
60478;SDS011;46321;48.398;11.754;2023-08-20T09:32:32;8.20;;;3.00;;
60478;SDS011;46321;48.398;11.754;2023-08-20T09:34:57;3.27;;;2.73;;
60478;SDS011;46321;48.398;11.754;2023-08-20T09:37:23;8.57;;;3.00;;
60478;SDS011;46321;48.398;11.754;2023-08-20T09:39:49;4.30;;;3.03;;
60478;SDS011;46321;48.398;11.754;2023-08-20T09:42:15;5.53;;;2.80;;
60478;SDS011;46321;48.398;11.754;2023-08-20T09:44:42;5.97;;;3.47;;
60478;SDS011;46321;48.398;11.754;2023-08-20T09:49:39;8.65;;;3.10;;
60478;SDS011;46321;48.398;11.754;2023-08-20T09:52:09;5.32;;;2.92;;
60478;SDS011;46321;48.398;11.754;2023-08-20T09:57:03;3.83;;;3.10;;
60478;SDS011;46321;48.398;11.754;2023-08-20T09:59:35;5.55;;;2.70;;
60478;SDS011;46321;48.398;11.754;2023-08-20T10:02:01;4.38;;;3.08;;
60478;SDS011;46321;48.398;11.754;2023-08-20T10:04:26;4.45;;;3.03;;
60478;SDS011;46321;48.398;11.754;2023-08-20T10:06:53;3.50;;;2.95;;
60478;SDS011;46321;48.398;11.754;2023-08-20T10:09:19;6.55;;;3.05;;
60478;SDS011;46321;48.398;11.754;2023-08-20T10:11:46;4.40;;;2.85;;
60478;SDS011;46321;48.398;11.754;2023-08-20T10:14:11;4.18;;;3.13;;
60478;SDS011;46321;48.398;11.754;2023-08-20T10:16:38;6.05;;;3.30;;
60478;SDS011;46321;48.398;11.754;2023-08-20T10:19:05;5.03;;;3.00;;
60478;SDS011;46321;48.398;11.754;2023-08-20T10:21:31;4.05;;;3.35;;
60478;SDS011;46321;48.398;11.754;2023-08-20T10:23:57;3.50;;;3.20;;
60478;SDS011;46321;48.398;11.754;2023-08-20T10:26:28;4.13;;;3.23;;
60478;SDS011;46321;48.398;11.754;2023-08-20T10:29:20;5.77;;;3.27;;
60478;SDS011;46321;48.398;11.754;2023-08-20T10:31:57;4.07;;;3.47;;
60478;SDS011;46321;48.398;11.754;2023-08-20T10:34:32;4.17;;;2.87;;
60478;SDS011;46321;48.398;11.754;2023-08-20T10:37:00;5.18;;;3.10;;
60478;SDS011;46321;48.398;11.754;2023-08-20T10:39:28;4.03;;;3.20;;
60478;SDS011;46321;48.398;11.754;2023-08-20T10:44:56;3.90;;;3.03;;
60478;SDS011;46321;48.398;11.754;2023-08-20T10:47:47;5.35;;;3.08;;
60478;SDS011;46321;48.398;11.754;2023-08-20T10:50:17;4.20;;;2.92;;
60478;SDS011;46321;48.398;11.754;2023-08-20T10:52:50;5.30;;;3.00;;
60478;SDS011;46321;48.398;11.754;2023-08-20T10:55:23;4.78;;;3.42;;
60478;SDS011;46321;48.398;11.754;2023-08-20T10:57:54;6.13;;;3.92;;
60478;SDS011;46321;48.398;11.754;2023-08-20T11:00:21;4.95;;;3.53;;
60478;SDS011;46321;48.398;11.754;2023-08-20T11:02:47;5.20;;;4.10;;
60478;SDS011;46321;48.398;11.754;2023-08-20T11:05:17;6.18;;;3.85;;
60478;SDS011;46321;48.398;11.754;2023-08-20T11:07:47;8.32;;;3.70;;
60478;SDS011;46321;48.398;11.754;2023-08-20T11:10:14;4.32;;;3.88;;
60478;SDS011;46321;48.398;11.754;2023-08-20T11:12:40;7.50;;;4.13;;
60478;SDS011;46321;48.398;11.754;2023-08-20T11:15:07;6.05;;;3.80;;
60478;SDS011;46321;48.398;11.754;2023-08-20T11:17:34;4.25;;;3.85;;
60478;SDS011;46321;48.398;11.754;2023-08-20T11:19:59;3.93;;;3.53;;
60478;SDS011;46321;48.398;11.754;2023-08-20T11:22:26;4.45;;;4.05;;
60478;SDS011;46321;48.398;11.754;2023-08-20T11:24:52;5.20;;;3.92;;
60478;SDS011;46321;48.398;11.754;2023-08-20T11:27:17;4.53;;;4.07;;
60478;SDS011;46321;48.398;11.754;2023-08-20T11:29:42;4.67;;;4.10;;
60478;SDS011;46321;48.398;11.754;2023-08-20T11:32:10;5.25;;;4.47;;
60478;SDS011;46321;48.398;11.754;2023-08-20T11:34:36;7.03;;;4.90;;
60478;SDS011;46321;48.398;11.754;2023-08-20T11:37:03;6.68;;;4.13;;
60478;SDS011;46321;48.398;11.754;2023-08-20T11:39:28;4.93;;;4.30;;
60478;SDS011;46321;48.398;11.754;2023-08-20T11:41:54;4.78;;;4.30;;
60478;SDS011;46321;48.398;11.754;2023-08-20T11:44:20;6.45;;;4.40;;
60478;SDS011;46321;48.398;11.754;2023-08-20T11:46:46;5.80;;;4.80;;
60478;SDS011;46321;48.398;11.754;2023-08-20T11:49:12;6.78;;;4.43;;
60478;SDS011;46321;48.398;11.754;2023-08-20T11:51:39;4.80;;;4.30;;
60478;SDS011;46321;48.398;11.754;2023-08-20T11:54:12;5.32;;;4.07;;
60478;SDS011;46321;48.398;11.754;2023-08-20T11:56:51;5.63;;;4.38;;
60478;SDS011;46321;48.398;11.754;2023-08-20T11:59:18;5.00;;;4.50;;
60478;SDS011;46321;48.398;11.754;2023-08-20T12:02:24;5.53;;;4.43;;
60478;SDS011;46321;48.398;11.754;2023-08-20T12:04:35;4.90;;;4.38;;
60478;SDS011;46321;48.398;11.754;2023-08-20T12:07:02;6.03;;;4.20;;
60478;SDS011;46321;48.398;11.754;2023-08-20T12:09:30;6.30;;;4.65;;
60478;SDS011;46321;48.398;11.754;2023-08-20T12:11:55;6.53;;;4.85;;
60478;SDS011;46321;48.398;11.754;2023-08-20T12:14:21;6.20;;;4.70;;
60478;SDS011;46321;48.398;11.754;2023-08-20T12:16:46;5.43;;;4.30;;
60478;SDS011;46321;48.398;11.754;2023-08-20T12:19:13;7.80;;;5.20;;
60478;SDS011;46321;48.398;11.754;2023-08-20T12:21:38;6.47;;;4.75;;
60478;SDS011;46321;48.398;11.754;2023-08-20T12:24:04;6.68;;;4.32;;
60478;SDS011;46321;48.398;11.754;2023-08-20T12:26:30;5.00;;;4.50;;
60478;SDS011;46321;48.398;11.754;2023-08-20T12:28:55;4.67;;;4.07;;
60478;SDS011;46321;48.398;11.754;2023-08-20T12:31:20;9.43;;;4.50;;
60478;SDS011;46321;48.398;11.754;2023-08-20T12:33:45;6.13;;;4.90;;
60478;SDS011;46321;48.398;11.754;2023-08-20T12:36:11;6.93;;;5.00;;
60478;SDS011;46321;48.398;11.754;2023-08-20T12:38:36;8.10;;;4.33;;
60478;SDS011;46321;48.398;11.754;2023-08-20T12:41:01;4.30;;;3.77;;
60478;SDS011;46321;48.398;11.754;2023-08-20T12:43:28;5.57;;;4.28;;
60478;SDS011;46321;48.398;11.754;2023-08-20T12:45:54;5.68;;;4.10;;
60478;SDS011;46321;48.398;11.754;2023-08-20T12:48:19;4.80;;;4.00;;
60478;SDS011;46321;48.398;11.754;2023-08-20T12:50:44;6.63;;;4.47;;
60478;SDS011;46321;48.398;11.754;2023-08-20T12:53:09;8.33;;;4.30;;
60478;SDS011;46321;48.398;11.754;2023-08-20T12:55:35;5.67;;;4.07;;
60478;SDS011;46321;48.398;11.754;2023-08-20T12:58:00;4.80;;;4.23;;
60478;SDS011;46321;48.398;11.754;2023-08-20T13:00:26;4.60;;;3.60;;
60478;SDS011;46321;48.398;11.754;2023-08-20T13:02:54;5.78;;;4.03;;
60478;SDS011;46321;48.398;11.754;2023-08-20T13:05:21;5.22;;;3.90;;
60478;SDS011;46321;48.398;11.754;2023-08-20T13:07:47;5.85;;;4.28;;
60478;SDS011;46321;48.398;11.754;2023-08-20T13:10:13;7.40;;;3.90;;
60478;SDS011;46321;48.398;11.754;2023-08-20T13:12:40;5.60;;;4.18;;
60478;SDS011;46321;48.398;11.754;2023-08-20T13:15:06;5.25;;;3.75;;
60478;SDS011;46321;48.398;11.754;2023-08-20T13:17:32;9.50;;;4.47;;
60478;SDS011;46321;48.398;11.754;2023-08-20T13:19:58;5.75;;;4.53;;
60478;SDS011;46321;48.398;11.754;2023-08-20T13:22:23;8.43;;;4.50;;
60478;SDS011;46321;48.398;11.754;2023-08-20T13:24:48;7.00;;;4.10;;
60478;SDS011;46321;48.398;11.754;2023-08-20T13:27:13;5.13;;;4.53;;
60478;SDS011;46321;48.398;11.754;2023-08-20T13:29:40;6.37;;;4.17;;
60478;SDS011;46321;48.398;11.754;2023-08-20T13:32:06;4.75;;;4.25;;
60478;SDS011;46321;48.398;11.754;2023-08-20T13:34:31;8.38;;;5.70;;
60478;SDS011;46321;48.398;11.754;2023-08-20T13:36:57;6.95;;;4.47;;
60478;SDS011;46321;48.398;11.754;2023-08-20T13:39:22;5.83;;;4.33;;
60478;SDS011;46321;48.398;11.754;2023-08-20T13:41:48;6.43;;;4.40;;
60478;SDS011;46321;48.398;11.754;2023-08-20T13:44:15;9.07;;;4.15;;
60478;SDS011;46321;48.398;11.754;2023-08-20T13:46:40;4.47;;;3.77;;
60478;SDS011;46321;48.398;11.754;2023-08-20T13:49:05;4.63;;;3.87;;
60478;SDS011;46321;48.398;11.754;2023-08-20T13:51:30;4.70;;;4.00;;
60478;SDS011;46321;48.398;11.754;2023-08-20T13:53:56;6.63;;;4.07;;
60478;SDS011;46321;48.398;11.754;2023-08-20T13:56:22;5.50;;;3.90;;
60478;SDS011;46321;48.398;11.754;2023-08-20T13:58:47;4.38;;;3.88;;
60478;SDS011;46321;48.398;11.754;2023-08-20T14:01:12;8.33;;;3.37;;
60478;SDS011;46321;48.398;11.754;2023-08-20T14:03:38;5.90;;;3.55;;
60478;SDS011;46321;48.398;11.754;2023-08-20T14:06:04;4.35;;;3.72;;
60478;SDS011;46321;48.398;11.754;2023-08-20T14:08:30;5.93;;;4.03;;
60478;SDS011;46321;48.398;11.754;2023-08-20T14:10:55;5.63;;;3.80;;
60478;SDS011;46321;48.398;11.754;2023-08-20T14:13:20;8.67;;;4.20;;
60478;SDS011;46321;48.398;11.754;2023-08-20T14:15:45;3.83;;;3.50;;
60478;SDS011;46321;48.398;11.754;2023-08-20T14:18:11;4.68;;;3.53;;
60478;SDS011;46321;48.398;11.754;2023-08-20T14:20:36;4.57;;;3.13;;
60478;SDS011;46321;48.398;11.754;2023-08-20T14:23:01;5.13;;;4.00;;
60478;SDS011;46321;48.398;11.754;2023-08-20T14:25:27;8.80;;;4.28;;
60478;SDS011;46321;48.398;11.754;2023-08-20T14:27:52;5.33;;;4.27;;
60478;SDS011;46321;48.398;11.754;2023-08-20T14:30:17;5.20;;;3.60;;
60478;SDS011;46321;48.398;11.754;2023-08-20T14:32:43;5.65;;;3.78;;
60478;SDS011;46321;48.398;11.754;2023-08-20T14:35:09;5.50;;;4.10;;